Deerfield, Virginia
Current Conditions -  °F | °C
As of 9:15 AM on Sunday 25 Jan 2015 (Local Time) from KW13 Reporting Station
Scattered Clouds Scattered Clouds  
Wind Chill: 31°   Ceiling: Unl
Heat Index: 36°   Visibility: 10mi
Dew Point: 28°   Wind: 6mph
Humidity: 71%   Direction: 240°WSW
Pressure: 29.83"   Gusts: NA
Location:  38.2°N, 79.41°W
Report Text: KW13 251415Z AUTO 24005KT 10SM SCT040 02/M02 A2983 RMK AO1 T00221025
Loading
Personal Weather Stations






























Interactive Weather Map New forecast layout! Learn more

10-Day Weather Forecast

Advertisements
Track Severe Weather on mobile